sensor_id;sensor_type;location;lat;lon;timestamp;P1;durP1;ratioP1;P2;durP2;ratioP2
7239;SDS011;3661;53.288;10.458;2024-02-04T00:01:00;982.47;;;921.15;;
7239;SDS011;3661;53.288;10.458;2024-02-04T00:03:32;974.13;;;913.72;;
7239;SDS011;3661;53.288;10.458;2024-02-04T00:06:04;959.58;;;898.80;;
7239;SDS011;3661;53.288;10.458;2024-02-04T00:08:38;955.15;;;894.72;;
7239;SDS011;3661;53.288;10.458;2024-02-04T00:11:10;959.50;;;899.30;;
7239;SDS011;3661;53.288;10.458;2024-02-04T00:13:42;948.47;;;888.42;;
7239;SDS011;3661;53.288;10.458;2024-02-04T00:16:14;935.45;;;875.05;;
7239;SDS011;3661;53.288;10.458;2024-02-04T00:18:46;929.78;;;868.80;;
7239;SDS011;3661;53.288;10.458;2024-02-04T00:21:19;944.92;;;883.72;;
7239;SDS011;3661;53.288;10.458;2024-02-04T00:23:52;944.63;;;884.50;;
7239;SDS011;3661;53.288;10.458;2024-02-04T00:26:24;940.90;;;880.07;;
7239;SDS011;3661;53.288;10.458;2024-02-04T00:28:56;948.83;;;888.22;;
7239;SDS011;3661;53.288;10.458;2024-02-04T00:31:28;925.55;;;865.80;;
7239;SDS011;3661;53.288;10.458;2024-02-04T00:34:00;928.42;;;868.92;;
7239;SDS011;3661;53.288;10.458;2024-02-04T00:36:32;937.55;;;877.83;;
7239;SDS011;3661;53.288;10.458;2024-02-04T00:39:06;964.83;;;904.63;;
7239;SDS011;3661;53.288;10.458;2024-02-04T00:41:38;927.75;;;867.17;;
7239;SDS011;3661;53.288;10.458;2024-02-04T00:44:11;930.65;;;870.47;;
7239;SDS011;3661;53.288;10.458;2024-02-04T00:46:43;925.95;;;866.17;;
7239;SDS011;3661;53.288;10.458;2024-02-04T00:49:15;932.05;;;871.80;;
7239;SDS011;3661;53.288;10.458;2024-02-04T00:51:47;923.70;;;863.92;;
7239;SDS011;3661;53.288;10.458;2024-02-04T00:54:20;933.53;;;873.55;;
7239;SDS011;3661;53.288;10.458;2024-02-04T00:56:52;922.20;;;862.15;;
7239;SDS011;3661;53.288;10.458;2024-02-04T00:59:25;924.13;;;864.90;;
7239;SDS011;3661;53.288;10.458;2024-02-04T01:01:57;914.70;;;854.95;;
7239;SDS011;3661;53.288;10.458;2024-02-04T01:04:29;906.30;;;846.58;;
7239;SDS011;3661;53.288;10.458;2024-02-04T01:07:01;925.28;;;865.28;;
7239;SDS011;3661;53.288;10.458;2024-02-04T01:09:35;906.45;;;845.95;;
7239;SDS011;3661;53.288;10.458;2024-02-04T01:12:07;900.60;;;841.03;;
7239;SDS011;3661;53.288;10.458;2024-02-04T01:14:40;928.55;;;868.85;;
7239;SDS011;3661;53.288;10.458;2024-02-04T01:17:12;927.17;;;867.28;;
7239;SDS011;3661;53.288;10.458;2024-02-04T01:19:44;899.40;;;839.58;;
7239;SDS011;3661;53.288;10.458;2024-02-04T01:22:16;904.08;;;844.05;;
7239;SDS011;3661;53.288;10.458;2024-02-04T01:24:52;919.67;;;859.97;;
7239;SDS011;3661;53.288;10.458;2024-02-04T01:27:24;890.80;;;830.85;;
7239;SDS011;3661;53.288;10.458;2024-02-04T01:29:56;904.60;;;844.30;;
7239;SDS011;3661;53.288;10.458;2024-02-04T01:32:29;907.92;;;848.22;;
7239;SDS011;3661;53.288;10.458;2024-02-04T01:35:01;898.63;;;838.92;;
7239;SDS011;3661;53.288;10.458;2024-02-04T01:37:33;891.35;;;831.88;;
7239;SDS011;3661;53.288;10.458;2024-02-04T01:40:08;901.67;;;841.78;;
7239;SDS011;3661;53.288;10.458;2024-02-04T01:42:41;893.35;;;833.38;;
7239;SDS011;3661;53.288;10.458;2024-02-04T01:45:13;917.20;;;856.80;;
7239;SDS011;3661;53.288;10.458;2024-02-04T01:47:45;911.40;;;851.80;;
7239;SDS011;3661;53.288;10.458;2024-02-04T01:50:18;896.45;;;836.22;;
7239;SDS011;3661;53.288;10.458;2024-02-04T01:52:51;903.17;;;842.92;;
7239;SDS011;3661;53.288;10.458;2024-02-04T01:55:25;878.25;;;818.92;;
7239;SDS011;3661;53.288;10.458;2024-02-04T01:57:57;900.97;;;840.97;;
7239;SDS011;3661;53.288;10.458;2024-02-04T02:00:29;905.67;;;845.88;;
7239;SDS011;3661;53.288;10.458;2024-02-04T02:03:02;889.00;;;829.35;;
7239;SDS011;3661;53.288;10.458;2024-02-04T02:05:37;905.65;;;845.13;;
7239;SDS011;3661;53.288;10.458;2024-02-04T02:08:10;892.22;;;833.05;;
7239;SDS011;3661;53.288;10.458;2024-02-04T02:10:44;889.35;;;829.83;;
7239;SDS011;3661;53.288;10.458;2024-02-04T02:13:20;900.92;;;841.13;;
7239;SDS011;3661;53.288;10.458;2024-02-04T02:15:59;898.80;;;839.33;;
7239;SDS011;3661;53.288;10.458;2024-02-04T02:18:40;893.83;;;834.20;;
7239;SDS011;3661;53.288;10.458;2024-02-04T02:21:23;896.75;;;836.53;;
7239;SDS011;3661;53.288;10.458;2024-02-04T02:24:10;918.40;;;858.53;;
7239;SDS011;3661;53.288;10.458;2024-02-04T02:26:46;883.90;;;824.70;;
7239;SDS011;3661;53.288;10.458;2024-02-04T02:29:19;873.85;;;814.20;;
7239;SDS011;3661;53.288;10.458;2024-02-04T02:31:51;905.03;;;845.75;;
7239;SDS011;3661;53.288;10.458;2024-02-04T02:34:23;885.20;;;825.20;;
7239;SDS011;3661;53.288;10.458;2024-02-04T02:36:56;890.05;;;830.28;;
7239;SDS011;3661;53.288;10.458;2024-02-04T02:39:32;914.47;;;854.38;;
7239;SDS011;3661;53.288;10.458;2024-02-04T02:42:12;898.23;;;838.60;;
7239;SDS011;3661;53.288;10.458;2024-02-04T02:44:46;897.45;;;837.90;;
7239;SDS011;3661;53.288;10.458;2024-02-04T02:47:19;891.45;;;831.42;;
7239;SDS011;3661;53.288;10.458;2024-02-04T02:49:54;898.45;;;839.00;;
7239;SDS011;3661;53.288;10.458;2024-02-04T02:52:26;910.70;;;849.90;;
7239;SDS011;3661;53.288;10.458;2024-02-04T02:54:58;914.40;;;854.50;;
7239;SDS011;3661;53.288;10.458;2024-02-04T02:57:31;903.83;;;843.33;;
7239;SDS011;3661;53.288;10.458;2024-02-04T03:00:04;910.05;;;850.13;;
7239;SDS011;3661;53.288;10.458;2024-02-04T03:02:38;901.40;;;841.63;;
7239;SDS011;3661;53.288;10.458;2024-02-04T03:05:10;893.93;;;833.33;;
7239;SDS011;3661;53.288;10.458;2024-02-04T03:07:43;899.20;;;838.47;;
7239;SDS011;3661;53.288;10.458;2024-02-04T03:10:15;905.13;;;844.88;;
7239;SDS011;3661;53.288;10.458;2024-02-04T03:12:51;901.85;;;840.95;;
7239;SDS011;3661;53.288;10.458;2024-02-04T03:15:23;892.92;;;832.83;;
7239;SDS011;3661;53.288;10.458;2024-02-04T03:17:55;912.70;;;851.60;;
7239;SDS011;3661;53.288;10.458;2024-02-04T03:20:27;904.88;;;844.63;;
7239;SDS011;3661;53.288;10.458;2024-02-04T03:22:59;918.70;;;857.97;;
7239;SDS011;3661;53.288;10.458;2024-02-04T03:25:31;915.53;;;855.47;;
7239;SDS011;3661;53.288;10.458;2024-02-04T03:28:05;897.40;;;836.78;;
7239;SDS011;3661;53.288;10.458;2024-02-04T03:30:37;899.78;;;839.38;;
7239;SDS011;3661;53.288;10.458;2024-02-04T03:33:09;896.67;;;836.25;;
7239;SDS011;3661;53.288;10.458;2024-02-04T03:35:41;922.20;;;861.35;;
7239;SDS011;3661;53.288;10.458;2024-02-04T03:38:13;903.83;;;843.70;;
7239;SDS011;3661;53.288;10.458;2024-02-04T03:40:46;880.00;;;819.38;;
7239;SDS011;3661;53.288;10.458;2024-02-04T03:43:21;897.83;;;837.42;;
7239;SDS011;3661;53.288;10.458;2024-02-04T03:45:53;875.90;;;815.45;;
7239;SDS011;3661;53.288;10.458;2024-02-04T03:48:25;901.45;;;841.75;;
7239;SDS011;3661;53.288;10.458;2024-02-04T03:50:57;909.93;;;849.23;;
7239;SDS011;3661;53.288;10.458;2024-02-04T03:53:28;909.35;;;849.30;;
7239;SDS011;3661;53.288;10.458;2024-02-04T03:56:00;898.30;;;838.70;;
7239;SDS011;3661;53.288;10.458;2024-02-04T03:58:35;903.55;;;843.22;;
7239;SDS011;3661;53.288;10.458;2024-02-04T04:01:09;882.45;;;823.03;;
7239;SDS011;3661;53.288;10.458;2024-02-04T04:03:42;884.75;;;825.47;;
7239;SDS011;3661;53.288;10.458;2024-02-04T04:06:14;881.33;;;821.67;;
7239;SDS011;3661;53.288;10.458;2024-02-04T04:08:46;906.75;;;847.20;;
7239;SDS011;3661;53.288;10.458;2024-02-04T04:11:18;901.20;;;841.03;;
7239;SDS011;3661;53.288;10.458;2024-02-04T04:13:51;880.90;;;821.55;;
7239;SDS011;3661;53.288;10.458;2024-02-04T04:16:23;889.20;;;829.47;;
7239;SDS011;3661;53.288;10.458;2024-02-04T04:18:55;881.05;;;821.30;;
7239;SDS011;3661;53.288;10.458;2024-02-04T04:21:28;894.03;;;834.33;;
7239;SDS011;3661;53.288;10.458;2024-02-04T04:24:00;903.75;;;844.35;;
7239;SDS011;3661;53.288;10.458;2024-02-04T04:26:32;887.63;;;828.28;;
7239;SDS011;3661;53.288;10.458;2024-02-04T04:29:06;886.40;;;827.40;;
7239;SDS011;3661;53.288;10.458;2024-02-04T04:31:38;885.38;;;826.25;;
7239;SDS011;3661;53.288;10.458;2024-02-04T04:34:10;882.13;;;822.97;;
7239;SDS011;3661;53.288;10.458;2024-02-04T04:36:43;879.35;;;820.03;;
7239;SDS011;3661;53.288;10.458;2024-02-04T04:39:15;865.90;;;806.50;;
7239;SDS011;3661;53.288;10.458;2024-02-04T04:41:47;873.87;;;814.60;;
7239;SDS011;3661;53.288;10.458;2024-02-04T04:44:21;873.47;;;814.50;;
7239;SDS011;3661;53.288;10.458;2024-02-04T04:46:53;874.15;;;815.13;;
7239;SDS011;3661;53.288;10.458;2024-02-04T04:49:25;871.43;;;811.90;;
7239;SDS011;3661;53.288;10.458;2024-02-04T04:51:57;874.15;;;815.63;;
7239;SDS011;3661;53.288;10.458;2024-02-04T04:54:29;859.63;;;799.97;;
7239;SDS011;3661;53.288;10.458;2024-02-04T04:57:01;871.25;;;811.38;;
7239;SDS011;3661;53.288;10.458;2024-02-04T04:59:34;836.40;;;777.53;;
7239;SDS011;3661;53.288;10.458;2024-02-04T05:02:08;864.65;;;805.00;;
7239;SDS011;3661;53.288;10.458;2024-02-04T05:04:42;865.47;;;806.38;;
7239;SDS011;3661;53.288;10.458;2024-02-04T05:07:14;849.73;;;789.77;;
7239;SDS011;3661;53.288;10.458;2024-02-04T05:09:46;873.70;;;814.33;;
7239;SDS011;3661;53.288;10.458;2024-02-04T05:12:19;869.97;;;809.75;;
7239;SDS011;3661;53.288;10.458;2024-02-04T05:14:52;869.93;;;810.37;;
7239;SDS011;3661;53.288;10.458;2024-02-04T05:17:24;869.75;;;810.17;;
7239;SDS011;3661;53.288;10.458;2024-02-04T05:19:57;854.45;;;795.00;;
7239;SDS011;3661;53.288;10.458;2024-02-04T05:22:29;865.05;;;805.85;;
7239;SDS011;3661;53.288;10.458;2024-02-04T05:25:01;847.20;;;788.30;;
7239;SDS011;3661;53.288;10.458;2024-02-04T05:27:35;848.47;;;788.30;;
7239;SDS011;3661;53.288;10.458;2024-02-04T05:30:09;841.08;;;782.15;;
7239;SDS011;3661;53.288;10.458;2024-02-04T05:32:43;861.35;;;801.92;;
7239;SDS011;3661;53.288;10.458;2024-02-04T05:35:15;846.13;;;786.83;;
7239;SDS011;3661;53.288;10.458;2024-02-04T05:37:47;870.13;;;810.00;;
7239;SDS011;3661;53.288;10.458;2024-02-04T05:40:19;871.92;;;812.42;;
7239;SDS011;3661;53.288;10.458;2024-02-04T05:42:53;857.33;;;797.30;;
7239;SDS011;3661;53.288;10.458;2024-02-04T05:45:26;883.67;;;823.87;;
7239;SDS011;3661;53.288;10.458;2024-02-04T05:47:58;850.35;;;790.67;;
7239;SDS011;3661;53.288;10.458;2024-02-04T05:50:30;866.23;;;806.80;;
7239;SDS011;3661;53.288;10.458;2024-02-04T05:53:02;858.20;;;798.60;;
7239;SDS011;3661;53.288;10.458;2024-02-04T05:55:38;855.60;;;795.72;;
7239;SDS011;3661;53.288;10.458;2024-02-04T05:58:11;870.72;;;810.58;;
7239;SDS011;3661;53.288;10.458;2024-02-04T06:00:45;871.20;;;811.08;;
7239;SDS011;3661;53.288;10.458;2024-02-04T06:03:17;866.10;;;806.20;;
7239;SDS011;3661;53.288;10.458;2024-02-04T06:05:49;859.72;;;799.63;;
7239;SDS011;3661;53.288;10.458;2024-02-04T06:08:21;856.75;;;796.95;;
7239;SDS011;3661;53.288;10.458;2024-02-04T06:10:53;875.80;;;815.65;;
7239;SDS011;3661;53.288;10.458;2024-02-04T06:13:25;860.00;;;799.72;;
7239;SDS011;3661;53.288;10.458;2024-02-04T06:15:59;871.83;;;811.83;;
7239;SDS011;3661;53.288;10.458;2024-02-04T06:18:31;871.92;;;812.42;;
7239;SDS011;3661;53.288;10.458;2024-02-04T06:21:03;869.08;;;809.30;;
7239;SDS011;3661;53.288;10.458;2024-02-04T06:23:35;860.60;;;800.47;;
7239;SDS011;3661;53.288;10.458;2024-02-04T06:26:09;865.60;;;805.42;;
7239;SDS011;3661;53.288;10.458;2024-02-04T06:28:41;881.30;;;820.75;;
7239;SDS011;3661;53.288;10.458;2024-02-04T06:31:17;852.53;;;792.17;;
7239;SDS011;3661;53.288;10.458;2024-02-04T06:33:49;856.10;;;796.20;;
7239;SDS011;3661;53.288;10.458;2024-02-04T06:36:21;844.13;;;784.45;;
7239;SDS011;3661;53.288;10.458;2024-02-04T06:38:56;862.07;;;801.87;;
7239;SDS011;3661;53.288;10.458;2024-02-04T06:41:28;845.45;;;785.95;;
7239;SDS011;3661;53.288;10.458;2024-02-04T06:44:00;853.97;;;794.00;;
7239;SDS011;3661;53.288;10.458;2024-02-04T06:46:33;872.22;;;812.00;;
7239;SDS011;3661;53.288;10.458;2024-02-04T06:49:05;838.42;;;778.22;;
7239;SDS011;3661;53.288;10.458;2024-02-04T06:51:38;856.10;;;796.50;;
7239;SDS011;3661;53.288;10.458;2024-02-04T06:54:10;864.42;;;804.35;;
7239;SDS011;3661;53.288;10.458;2024-02-04T06:56:42;863.15;;;802.33;;
7239;SDS011;3661;53.288;10.458;2024-02-04T06:59:14;840.30;;;780.75;;
7239;SDS011;3661;53.288;10.458;2024-02-04T07:01:47;856.25;;;796.70;;
7239;SDS011;3661;53.288;10.458;2024-02-04T07:04:20;849.75;;;790.17;;
7239;SDS011;3661;53.288;10.458;2024-02-04T07:06:54;854.75;;;795.40;;
7239;SDS011;3661;53.288;10.458;2024-02-04T07:09:26;840.40;;;780.88;;
7239;SDS011;3661;53.288;10.458;2024-02-04T07:11:58;858.45;;;798.50;;
7239;SDS011;3661;53.288;10.458;2024-02-04T07:14:30;854.00;;;793.45;;
7239;SDS011;3661;53.288;10.458;2024-02-04T07:17:04;868.88;;;809.20;;
7239;SDS011;3661;53.288;10.458;2024-02-04T07:19:36;856.47;;;796.40;;
7239;SDS011;3661;53.288;10.458;2024-02-04T07:22:08;848.55;;;788.75;;
7239;SDS011;3661;53.288;10.458;2024-02-04T07:24:40;846.17;;;786.45;;
7239;SDS011;3661;53.288;10.458;2024-02-04T07:27:12;844.15;;;784.17;;
7239;SDS011;3661;53.288;10.458;2024-02-04T07:29:44;838.13;;;777.95;;
7239;SDS011;3661;53.288;10.458;2024-02-04T07:32:18;855.92;;;796.15;;
7239;SDS011;3661;53.288;10.458;2024-02-04T07:34:51;858.63;;;798.58;;
7239;SDS011;3661;53.288;10.458;2024-02-04T07:37:23;872.90;;;813.00;;
7239;SDS011;3661;53.288;10.458;2024-02-04T07:39:55;857.42;;;797.63;;
7239;SDS011;3661;53.288;10.458;2024-02-04T07:42:27;843.80;;;784.40;;
7239;SDS011;3661;53.288;10.458;2024-02-04T07:44:59;855.92;;;796.20;;
7239;SDS011;3661;53.288;10.458;2024-02-04T07:47:39;849.75;;;789.83;;
7239;SDS011;3661;53.288;10.458;2024-02-04T07:50:12;859.35;;;799.03;;
7239;SDS011;3661;53.288;10.458;2024-02-04T07:52:44;863.58;;;803.78;;
7239;SDS011;3661;53.288;10.458;2024-02-04T07:55:16;844.83;;;784.97;;
7239;SDS011;3661;53.288;10.458;2024-02-04T07:57:49;845.50;;;785.33;;
7239;SDS011;3661;53.288;10.458;2024-02-04T08:00:21;851.15;;;790.90;;
7239;SDS011;3661;53.288;10.458;2024-02-04T08:02:55;868.85;;;808.03;;
7239;SDS011;3661;53.288;10.458;2024-02-04T08:05:28;841.42;;;781.42;;
7239;SDS011;3661;53.288;10.458;2024-02-04T08:08:01;852.10;;;792.28;;
7239;SDS011;3661;53.288;10.458;2024-02-04T08:10:34;857.50;;;796.78;;
7239;SDS011;3661;53.288;10.458;2024-02-04T08:13:06;844.23;;;783.87;;
7239;SDS011;3661;53.288;10.458;2024-02-04T08:15:38;847.28;;;787.38;;
7239;SDS011;3661;53.288;10.458;2024-02-04T08:18:11;843.25;;;783.20;;
7239;SDS011;3661;53.288;10.458;2024-02-04T08:20:44;857.08;;;797.08;;
7239;SDS011;3661;53.288;10.458;2024-02-04T08:23:16;862.87;;;802.53;;
7239;SDS011;3661;53.288;10.458;2024-02-04T08:25:48;847.58;;;787.80;;
7239;SDS011;3661;53.288;10.458;2024-02-04T08:28:21;873.08;;;812.53;;
7239;SDS011;3661;53.288;10.458;2024-02-04T08:30:54;884.13;;;823.00;;
7239;SDS011;3661;53.288;10.458;2024-02-04T08:33:27;872.38;;;811.13;;
7239;SDS011;3661;53.288;10.458;2024-02-04T08:35:59;843.45;;;783.50;;
7239;SDS011;3661;53.288;10.458;2024-02-04T08:38:32;867.10;;;806.40;;
7239;SDS011;3661;53.288;10.458;2024-02-04T08:41:06;879.08;;;818.35;;
7239;SDS011;3661;53.288;10.458;2024-02-04T08:43:38;891.53;;;830.55;;
7239;SDS011;3661;53.288;10.458;2024-02-04T08:46:10;877.90;;;817.23;;
7239;SDS011;3661;53.288;10.458;2024-02-04T08:48:47;854.03;;;793.40;;
7239;SDS011;3661;53.288;10.458;2024-02-04T08:51:19;892.83;;;832.15;;
7239;SDS011;3661;53.288;10.458;2024-02-04T08:53:51;874.92;;;814.60;;
7239;SDS011;3661;53.288;10.458;2024-02-04T08:56:25;871.05;;;810.60;;
7239;SDS011;3661;53.288;10.458;2024-02-04T08:58:57;879.47;;;818.87;;
7239;SDS011;3661;53.288;10.458;2024-02-04T09:01:31;874.40;;;814.13;;
7239;SDS011;3661;53.288;10.458;2024-02-04T09:04:05;894.53;;;834.45;;
7239;SDS011;3661;53.288;10.458;2024-02-04T09:06:38;891.83;;;830.83;;
7239;SDS011;3661;53.288;10.458;2024-02-04T09:09:10;896.28;;;835.83;;
7239;SDS011;3661;53.288;10.458;2024-02-04T09:11:42;883.80;;;823.35;;
7239;SDS011;3661;53.288;10.458;2024-02-04T09:14:14;895.07;;;834.07;;
7239;SDS011;3661;53.288;10.458;2024-02-04T09:16:46;902.03;;;840.90;;
7239;SDS011;3661;53.288;10.458;2024-02-04T09:19:20;920.70;;;858.60;;
7239;SDS011;3661;53.288;10.458;2024-02-04T09:21:52;902.77;;;841.47;;
7239;SDS011;3661;53.288;10.458;2024-02-04T09:24:24;932.10;;;870.42;;
7239;SDS011;3661;53.288;10.458;2024-02-04T09:26:56;910.78;;;849.45;;
7239;SDS011;3661;53.288;10.458;2024-02-04T09:29:28;907.03;;;845.33;;
7239;SDS011;3661;53.288;10.458;2024-02-04T09:32:00;903.35;;;842.00;;
7239;SDS011;3661;53.288;10.458;2024-02-04T09:34:34;921.53;;;859.47;;
7239;SDS011;3661;53.288;10.458;2024-02-04T09:37:06;936.83;;;874.97;;
7239;SDS011;3661;53.288;10.458;2024-02-04T09:39:38;916.53;;;854.28;;
7239;SDS011;3661;53.288;10.458;2024-02-04T09:42:10;938.10;;;876.10;;
7239;SDS011;3661;53.288;10.458;2024-02-04T09:44:55;931.22;;;869.40;;
7239;SDS011;3661;53.288;10.458;2024-02-04T09:47:27;934.28;;;871.38;;
7239;SDS011;3661;53.288;10.458;2024-02-04T09:50:01;939.13;;;877.03;;
7239;SDS011;3661;53.288;10.458;2024-02-04T09:52:33;944.03;;;881.75;;
7239;SDS011;3661;53.288;10.458;2024-02-04T09:55:10;930.28;;;868.22;;
7239;SDS011;3661;53.288;10.458;2024-02-04T09:57:45;941.22;;;879.08;;
7239;SDS011;3661;53.288;10.458;2024-02-04T10:00:18;955.03;;;892.73;;
7239;SDS011;3661;53.288;10.458;2024-02-04T10:02:50;964.15;;;901.25;;
7239;SDS011;3661;53.288;10.458;2024-02-04T10:05:26;945.08;;;882.53;;
7239;SDS011;3661;53.288;10.458;2024-02-04T10:07:58;952.87;;;890.23;;
7239;SDS011;3661;53.288;10.458;2024-02-04T10:10:30;958.15;;;895.25;;
7239;SDS011;3661;53.288;10.458;2024-02-04T10:13:05;961.83;;;899.75;;
7239;SDS011;3661;53.288;10.458;2024-02-04T10:15:38;941.28;;;878.22;;
7239;SDS011;3661;53.288;10.458;2024-02-04T10:18:10;959.95;;;898.05;;
7239;SDS011;3661;53.288;10.458;2024-02-04T10:20:44;959.90;;;896.77;;
7239;SDS011;3661;53.288;10.458;2024-02-04T10:23:16;959.13;;;896.33;;
7239;SDS011;3661;53.288;10.458;2024-02-04T10:25:56;971.20;;;908.45;;
7239;SDS011;3661;53.288;10.458;2024-02-04T10:28:29;963.25;;;900.75;;
7239;SDS011;3661;53.288;10.458;2024-02-04T10:31:02;970.70;;;907.58;;
7239;SDS011;3661;53.288;10.458;2024-02-04T10:33:34;974.70;;;912.25;;
7239;SDS011;3661;53.288;10.458;2024-02-04T10:36:08;974.13;;;910.78;;
7239;SDS011;3661;53.288;10.458;2024-02-04T10:38:41;978.97;;;915.80;;
7239;SDS011;3661;53.288;10.458;2024-02-04T10:41:14;962.22;;;899.25;;
7239;SDS011;3661;53.288;10.458;2024-02-04T10:43:46;960.80;;;897.50;;
7239;SDS011;3661;53.288;10.458;2024-02-04T10:46:19;988.33;;;924.55;;
7239;SDS011;3661;53.288;10.458;2024-02-04T10:48:55;979.65;;;916.35;;
7239;SDS011;3661;53.288;10.458;2024-02-04T10:51:30;985.30;;;922.10;;
7239;SDS011;3661;53.288;10.458;2024-02-04T10:54:07;1007.75;;;943.55;;
7239;SDS011;3661;53.288;10.458;2024-02-04T10:56:41;980.63;;;917.00;;
7239;SDS011;3661;53.288;10.458;2024-02-04T10:59:15;1009.78;;;946.17;;
7239;SDS011;3661;53.288;10.458;2024-02-04T11:01:50;994.28;;;930.42;;
7239;SDS011;3661;53.288;10.458;2024-02-04T11:04:22;1046.18;;;982.53;;
7239;SDS011;3661;53.288;10.458;2024-02-04T11:06:56;1043.20;;;979.50;;
7239;SDS011;3661;53.288;10.458;2024-02-04T11:09:29;1030.03;;;966.63;;
7239;SDS011;3661;53.288;10.458;2024-02-04T11:12:01;1003.90;;;941.00;;
7239;SDS011;3661;53.288;10.458;2024-02-04T11:14:41;997.75;;;934.08;;
7239;SDS011;3661;53.288;10.458;2024-02-04T11:17:24;1005.20;;;941.50;;
7239;SDS011;3661;53.288;10.458;2024-02-04T11:20:10;1037.90;;;973.75;;
7239;SDS011;3661;53.288;10.458;2024-02-04T11:22:58;999.53;;;936.05;;
7239;SDS011;3661;53.288;10.458;2024-02-04T11:25:42;1051.40;;;987.92;;
7239;SDS011;3661;53.288;10.458;2024-02-04T11:28:17;1075.28;;;999.90;;
7239;SDS011;3661;53.288;10.458;2024-02-04T11:30:50;1115.55;;;999.90;;
7239;SDS011;3661;53.288;10.458;2024-02-04T11:33:22;1058.70;;;994.72;;
7239;SDS011;3661;53.288;10.458;2024-02-04T11:35:58;1061.07;;;995.95;;
7239;SDS011;3661;53.288;10.458;2024-02-04T11:38:35;1084.60;;;999.90;;
7239;SDS011;3661;53.288;10.458;2024-02-04T11:41:07;1086.55;;;999.90;;
7239;SDS011;3661;53.288;10.458;2024-02-04T11:43:40;1156.30;;;999.90;;
7239;SDS011;3661;53.288;10.458;2024-02-04T11:46:16;1135.57;;;999.90;;
7239;SDS011;3661;53.288;10.458;2024-02-04T11:48:52;1156.25;;;999.90;;
7239;SDS011;3661;53.288;10.458;2024-02-04T11:51:25;1137.80;;;999.90;;
7239;SDS011;3661;53.288;10.458;2024-02-04T11:53:58;1168.68;;;999.90;;
7239;SDS011;3661;53.288;10.458;2024-02-04T11:56:31;1145.25;;;999.90;;
7239;SDS011;3661;53.288;10.458;2024-02-04T11:59:06;1135.95;;;999.90;;
7239;SDS011;3661;53.288;10.458;2024-02-04T12:01:39;1121.53;;;999.90;;
7239;SDS011;3661;53.288;10.458;2024-02-04T12:04:12;1176.07;;;999.90;;
7239;SDS011;3661;53.288;10.458;2024-02-04T12:06:47;1120.22;;;999.90;;
7239;SDS011;3661;53.288;10.458;2024-02-04T12:09:21;1133.90;;;999.90;;
7239;SDS011;3661;53.288;10.458;2024-02-04T12:11:55;1130.13;;;999.90;;
7239;SDS011;3661;53.288;10.458;2024-02-04T12:14:27;1174.25;;;999.90;;
7239;SDS011;3661;53.288;10.458;2024-02-04T12:17:06;1169.78;;;999.90;;
7239;SDS011;3661;53.288;10.458;2024-02-04T12:19:40;1159.25;;;999.90;;
7239;SDS011;3661;53.288;10.458;2024-02-04T12:22:12;1183.32;;;999.90;;
7239;SDS011;3661;53.288;10.458;2024-02-04T12:24:47;1211.07;;;999.90;;
7239;SDS011;3661;53.288;10.458;2024-02-04T12:27:19;1198.07;;;999.90;;
7239;SDS011;3661;53.288;10.458;2024-02-04T12:29:53;1131.00;;;999.90;;
7239;SDS011;3661;53.288;10.458;2024-02-04T12:32:28;1166.18;;;999.90;;
7239;SDS011;3661;53.288;10.458;2024-02-04T12:35:00;1187.55;;;999.90;;
7239;SDS011;3661;53.288;10.458;2024-02-04T12:37:32;1185.63;;;999.90;;
7239;SDS011;3661;53.288;10.458;2024-02-04T12:40:07;1185.47;;;999.90;;
7239;SDS011;3661;53.288;10.458;2024-02-04T12:42:42;1210.60;;;999.90;;
7239;SDS011;3661;53.288;10.458;2024-02-04T12:45:14;1155.85;;;999.90;;
7239;SDS011;3661;53.288;10.458;2024-02-04T12:47:48;1168.07;;;999.90;;
7239;SDS011;3661;53.288;10.458;2024-02-04T12:50:21;1209.80;;;999.90;;
7239;SDS011;3661;53.288;10.458;2024-02-04T12:53:02;1202.35;;;999.90;;
7239;SDS011;3661;53.288;10.458;2024-02-04T12:55:36;1200.40;;;999.90;;
7239;SDS011;3661;53.288;10.458;2024-02-04T12:58:09;1206.28;;;999.90;;
7239;SDS011;3661;53.288;10.458;2024-02-04T13:00:47;1190.40;;;999.90;;
7239;SDS011;3661;53.288;10.458;2024-02-04T13:03:19;1192.93;;;999.90;;
7239;SDS011;3661;53.288;10.458;2024-02-04T13:05:51;1183.78;;;999.90;;
7239;SDS011;3661;53.288;10.458;2024-02-04T13:08:29;1187.22;;;999.90;;
7239;SDS011;3661;53.288;10.458;2024-02-04T13:11:03;1204.18;;;999.90;;
7239;SDS011;3661;53.288;10.458;2024-02-04T13:13:35;1182.50;;;999.90;;
7239;SDS011;3661;53.288;10.458;2024-02-04T13:16:07;1227.20;;;999.90;;
7239;SDS011;3661;53.288;10.458;2024-02-04T13:18:39;1224.87;;;999.90;;
7239;SDS011;3661;53.288;10.458;2024-02-04T13:21:11;1204.05;;;999.90;;
7239;SDS011;3661;53.288;10.458;2024-02-04T13:23:43;1202.32;;;999.90;;
7239;SDS011;3661;53.288;10.458;2024-02-04T13:26:17;1242.13;;;999.90;;
7239;SDS011;3661;53.288;10.458;2024-02-04T13:28:49;1198.63;;;999.90;;
7239;SDS011;3661;53.288;10.458;2024-02-04T13:31:21;1270.38;;;999.90;;
7239;SDS011;3661;53.288;10.458;2024-02-04T13:33:53;1209.68;;;999.90;;
7239;SDS011;3661;53.288;10.458;2024-02-04T13:36:25;1177.77;;;999.90;;
7239;SDS011;3661;53.288;10.458;2024-02-04T13:38:57;1247.40;;;999.90;;
7239;SDS011;3661;53.288;10.458;2024-02-04T13:41:31;1254.18;;;999.90;;
7239;SDS011;3661;53.288;10.458;2024-02-04T13:44:03;1227.78;;;999.90;;
7239;SDS011;3661;53.288;10.458;2024-02-04T13:46:35;1169.53;;;999.90;;
7239;SDS011;3661;53.288;10.458;2024-02-04T13:49:09;1241.20;;;999.90;;
7239;SDS011;3661;53.288;10.458;2024-02-04T13:51:42;1220.55;;;999.90;;
7239;SDS011;3661;53.288;10.458;2024-02-04T13:54:14;1261.63;;;999.90;;
7239;SDS011;3661;53.288;10.458;2024-02-04T13:56:48;1249.40;;;999.90;;
7239;SDS011;3661;53.288;10.458;2024-02-04T13:59:20;1213.72;;;999.90;;
7239;SDS011;3661;53.288;10.458;2024-02-04T14:01:52;1228.70;;;999.90;;
7239;SDS011;3661;53.288;10.458;2024-02-04T14:04:24;1183.93;;;999.90;;
7239;SDS011;3661;53.288;10.458;2024-02-04T14:06:56;1221.38;;;999.90;;
7239;SDS011;3661;53.288;10.458;2024-02-04T14:09:28;1189.78;;;999.90;;
7239;SDS011;3661;53.288;10.458;2024-02-04T14:12:03;1253.57;;;999.90;;
7239;SDS011;3661;53.288;10.458;2024-02-04T14:14:35;1202.82;;;999.90;;
7239;SDS011;3661;53.288;10.458;2024-02-04T14:17:08;1238.25;;;999.90;;
7239;SDS011;3661;53.288;10.458;2024-02-04T14:19:40;1234.13;;;999.90;;
7239;SDS011;3661;53.288;10.458;2024-02-04T14:22:15;1219.57;;;999.90;;
7239;SDS011;3661;53.288;10.458;2024-02-04T14:24:48;1185.97;;;999.90;;
7239;SDS011;3661;53.288;10.458;2024-02-04T14:27:22;1239.70;;;999.90;;
7239;SDS011;3661;53.288;10.458;2024-02-04T14:29:54;1222.80;;;999.90;;
7239;SDS011;3661;53.288;10.458;2024-02-04T14:32:26;1231.38;;;999.90;;
7239;SDS011;3661;53.288;10.458;2024-02-04T14:34:58;1241.18;;;999.90;;
7239;SDS011;3661;53.288;10.458;2024-02-04T14:37:39;1219.30;;;999.90;;
7239;SDS011;3661;53.288;10.458;2024-02-04T14:40:13;1255.28;;;999.90;;